sensor_id;sensor_type;location;lat;lon;timestamp;pressure;altitude;pressure_sealevel;temperature;humidity
60049;BME280;66154;45.544;6.756;2023-01-01T00:00:37;87843.75;;;5.99;67.83
60049;BME280;66154;45.544;6.756;2023-01-01T00:05:38;87840.44;;;5.98;68.20
60049;BME280;66154;45.544;6.756;2023-01-01T00:10:38;87839.72;;;5.88;68.40
60049;BME280;66154;45.544;6.756;2023-01-01T00:15:39;87846.31;;;5.94;67.58
60049;BME280;66154;45.544;6.756;2023-01-01T00:20:40;87845.03;;;5.91;68.04
60049;BME280;66154;45.544;6.756;2023-01-01T00:25:40;87853.22;;;5.88;68.17
60049;BME280;66154;45.544;6.756;2023-01-01T00:30:41;87840.78;;;5.81;67.58
60049;BME280;66154;45.544;6.756;2023-01-01T00:35:41;87841.31;;;5.78;68.65
60049;BME280;66154;45.544;6.756;2023-01-01T00:40:42;87841.84;;;5.75;68.60
60049;BME280;66154;45.544;6.756;2023-01-01T00:45:42;87829.59;;;5.77;69.03
60049;BME280;66154;45.544;6.756;2023-01-01T00:50:47;87825.25;;;5.78;68.83
60049;BME280;66154;45.544;6.756;2023-01-01T00:55:49;87810.25;;;5.71;68.41
60049;BME280;66154;45.544;6.756;2023-01-01T01:00:51;87820.50;;;5.61;68.68
60049;BME280;66154;45.544;6.756;2023-01-01T01:05:52;87819.59;;;5.81;67.64
60049;BME280;66154;45.544;6.756;2023-01-01T01:10:53;87824.44;;;5.83;67.14
60049;BME280;66154;45.544;6.756;2023-01-01T01:15:54;87821.47;;;5.70;68.27
60049;BME280;66154;45.544;6.756;2023-01-01T01:20:54;87820.84;;;5.84;67.52
60049;BME280;66154;45.544;6.756;2023-01-01T01:26:08;87831.34;;;5.82;67.75
60049;BME280;66154;45.544;6.756;2023-01-01T01:31:09;87835.75;;;5.71;68.50
60049;BME280;66154;45.544;6.756;2023-01-01T01:36:10;87839.41;;;5.60;69.05
60049;BME280;66154;45.544;6.756;2023-01-01T01:41:12;87827.31;;;5.71;68.92
60049;BME280;66154;45.544;6.756;2023-01-01T01:46:16;87826.13;;;5.58;69.24
60049;BME280;66154;45.544;6.756;2023-01-01T01:51:23;87817.75;;;5.52;68.38
60049;BME280;66154;45.544;6.756;2023-01-01T01:56:51;87819.66;;;5.71;68.30
60049;BME280;66154;45.544;6.756;2023-01-01T02:01:53;87803.06;;;5.73;67.45
60049;BME280;66154;45.544;6.756;2023-01-01T02:06:54;87815.69;;;5.94;66.34
60049;BME280;66154;45.544;6.756;2023-01-01T02:11:55;87823.78;;;5.67;67.97
60049;BME280;66154;45.544;6.756;2023-01-01T02:16:57;87822.00;;;5.67;68.28
60049;BME280;66154;45.544;6.756;2023-01-01T02:22:09;87822.53;;;5.64;68.98
60049;BME280;66154;45.544;6.756;2023-01-01T02:32:34;87844.25;;;5.61;69.40
60049;BME280;66154;45.544;6.756;2023-01-01T02:37:37;87829.19;;;5.60;69.58
60049;BME280;66154;45.544;6.756;2023-01-01T02:42:38;87832.03;;;5.53;69.36
60049;BME280;66154;45.544;6.756;2023-01-01T02:47:39;87823.78;;;5.67;68.93
60049;BME280;66154;45.544;6.756;2023-01-01T02:52:58;87815.69;;;5.54;69.76
60049;BME280;66154;45.544;6.756;2023-01-01T03:03:46;87818.22;;;5.59;68.92
60049;BME280;66154;45.544;6.756;2023-01-01T03:14:07;87840.44;;;5.54;69.49
60049;BME280;66154;45.544;6.756;2023-01-01T03:19:27;87858.53;;;5.57;69.46
60049;BME280;66154;45.544;6.756;2023-01-01T03:29:33;87852.69;;;5.52;69.71
60049;BME280;66154;45.544;6.756;2023-01-01T03:34:38;87844.06;;;5.48;69.89
60049;BME280;66154;45.544;6.756;2023-01-01T03:39:47;87834.31;;;5.55;69.38
60049;BME280;66154;45.544;6.756;2023-01-01T03:44:54;87834.34;;;5.50;69.80
60049;BME280;66154;45.544;6.756;2023-01-01T03:49:57;87834.84;;;5.52;69.66
60049;BME280;66154;45.544;6.756;2023-01-01T03:55:35;87831.19;;;5.68;68.69
60049;BME280;66154;45.544;6.756;2023-01-01T04:01:03;87838.78;;;5.73;69.16
60049;BME280;66154;45.544;6.756;2023-01-01T04:06:09;87838.97;;;5.87;67.55
60049;BME280;66154;45.544;6.756;2023-01-01T04:11:16;87828.84;;;5.72;69.03
60049;BME280;66154;45.544;6.756;2023-01-01T04:16:37;87829.69;;;5.62;70.08
60049;BME280;66154;45.544;6.756;2023-01-01T04:21:38;87844.50;;;5.55;70.45
60049;BME280;66154;45.544;6.756;2023-01-01T04:26:38;87837.38;;;5.52;70.40
60049;BME280;66154;45.544;6.756;2023-01-01T04:31:39;87843.00;;;5.49;70.26
60049;BME280;66154;45.544;6.756;2023-01-01T04:36:40;87848.19;;;5.38;70.70
60049;BME280;66154;45.544;6.756;2023-01-01T04:41:40;87839.50;;;5.39;70.19
60049;BME280;66154;45.544;6.756;2023-01-01T04:46:41;87843.56;;;5.40;69.94
60049;BME280;66154;45.544;6.756;2023-01-01T04:51:42;87854.81;;;5.39;70.71
60049;BME280;66154;45.544;6.756;2023-01-01T04:56:42;87842.59;;;5.36;70.26
60049;BME280;66154;45.544;6.756;2023-01-01T05:01:43;87857.38;;;5.34;70.36
60049;BME280;66154;45.544;6.756;2023-01-01T05:06:43;87854.06;;;5.34;70.14
60049;BME280;66154;45.544;6.756;2023-01-01T05:11:44;87856.91;;;5.27;70.41
60049;BME280;66154;45.544;6.756;2023-01-01T05:16:44;87879.88;;;5.22;70.80
60049;BME280;66154;45.544;6.756;2023-01-01T05:21:45;87888.22;;;5.38;70.26
60049;BME280;66154;45.544;6.756;2023-01-01T05:26:45;87891.88;;;5.16;71.36
60049;BME280;66154;45.544;6.756;2023-01-01T05:31:46;87884.47;;;5.20;70.26
60049;BME280;66154;45.544;6.756;2023-01-01T05:36:47;87890.88;;;5.17;70.83
60049;BME280;66154;45.544;6.756;2023-01-01T05:41:47;87888.81;;;5.09;71.14
60049;BME280;66154;45.544;6.756;2023-01-01T05:46:48;87891.13;;;5.11;71.02
60049;BME280;66154;45.544;6.756;2023-01-01T05:51:48;87889.13;;;5.07;70.66
60049;BME280;66154;45.544;6.756;2023-01-01T05:56:49;87902.59;;;5.13;70.87
60049;BME280;66154;45.544;6.756;2023-01-01T06:01:49;87906.41;;;5.11;71.56
60049;BME280;66154;45.544;6.756;2023-01-01T06:06:50;87905.69;;;5.00;71.74
60049;BME280;66154;45.544;6.756;2023-01-01T06:11:50;87901.34;;;5.05;71.14
60049;BME280;66154;45.544;6.756;2023-01-01T06:16:51;87916.16;;;4.98;71.22
60049;BME280;66154;45.544;6.756;2023-01-01T06:21:51;87915.38;;;4.98;70.84
60049;BME280;66154;45.544;6.756;2023-01-01T06:26:52;87920.25;;;4.84;71.72
60049;BME280;66154;45.544;6.756;2023-01-01T06:31:52;87923.78;;;4.93;71.54
60049;BME280;66154;45.544;6.756;2023-01-01T06:36:53;87922.31;;;4.87;71.91
60049;BME280;66154;45.544;6.756;2023-01-01T06:41:53;87936.31;;;4.84;71.88
60049;BME280;66154;45.544;6.756;2023-01-01T06:46:54;87925.38;;;4.84;71.85
60049;BME280;66154;45.544;6.756;2023-01-01T06:51:55;87931.97;;;4.85;71.19
60049;BME280;66154;45.544;6.756;2023-01-01T06:56:55;87935.03;;;4.77;72.42
60049;BME280;66154;45.544;6.756;2023-01-01T07:01:56;87941.69;;;4.78;72.29
60049;BME280;66154;45.544;6.756;2023-01-01T07:06:56;87941.41;;;4.79;71.85
60049;BME280;66154;45.544;6.756;2023-01-01T07:11:57;87936.31;;;4.79;71.93
60049;BME280;66154;45.544;6.756;2023-01-01T07:16:57;87936.59;;;4.78;71.73
60049;BME280;66154;45.544;6.756;2023-01-01T07:21:58;87927.41;;;4.77;71.86
60049;BME280;66154;45.544;6.756;2023-01-01T07:26:58;87932.00;;;4.75;71.80
60049;BME280;66154;45.544;6.756;2023-01-01T07:31:59;87934.03;;;4.78;72.10
60049;BME280;66154;45.544;6.756;2023-01-01T07:36:59;87933.75;;;4.74;72.63
60049;BME280;66154;45.544;6.756;2023-01-01T07:42:00;87939.63;;;4.80;72.24
60049;BME280;66154;45.544;6.756;2023-01-01T07:47:04;87929.44;;;4.80;72.42
60049;BME280;66154;45.544;6.756;2023-01-01T07:52:09;87936.06;;;4.76;72.84
60049;BME280;66154;45.544;6.756;2023-01-01T07:57:10;87929.44;;;4.80;72.93
60049;BME280;66154;45.544;6.756;2023-01-01T08:02:11;87934.50;;;4.85;72.72
60049;BME280;66154;45.544;6.756;2023-01-01T08:07:12;87922.81;;;4.84;72.49
60049;BME280;66154;45.544;6.756;2023-01-01T08:12:12;87931.97;;;4.85;72.90
60049;BME280;66154;45.544;6.756;2023-01-01T08:17:13;87923.56;;;4.89;72.37
60049;BME280;66154;45.544;6.756;2023-01-01T08:22:14;87917.44;;;4.96;71.33
60049;BME280;66154;45.544;6.756;2023-01-01T08:27:15;87916.41;;;4.92;72.91
60049;BME280;66154;45.544;6.756;2023-01-01T08:32:16;87927.84;;;5.10;70.60
60049;BME280;66154;45.544;6.756;2023-01-01T08:37:18;87922.72;;;5.15;70.22
60049;BME280;66154;45.544;6.756;2023-01-01T08:42:20;87916.59;;;5.11;70.58
60049;BME280;66154;45.544;6.756;2023-01-01T08:47:23;87927.31;;;5.18;71.63
60049;BME280;66154;45.544;6.756;2023-01-01T08:52:24;87918.91;;;5.17;71.43
60049;BME280;66154;45.544;6.756;2023-01-01T08:57:29;87915.81;;;5.25;71.44
60049;BME280;66154;45.544;6.756;2023-01-01T09:02:30;87911.19;;;5.33;71.59
60049;BME280;66154;45.544;6.756;2023-01-01T09:07:30;87917.53;;;5.40;71.28
60049;BME280;66154;45.544;6.756;2023-01-01T09:12:31;87905.78;;;5.44;70.81
60049;BME280;66154;45.544;6.756;2023-01-01T09:17:32;87903.19;;;5.55;70.67
60049;BME280;66154;45.544;6.756;2023-01-01T09:22:33;87906.00;;;5.58;70.12
60049;BME280;66154;45.544;6.756;2023-01-01T09:27:33;87904.38;;;5.68;70.03
60049;BME280;66154;45.544;6.756;2023-01-01T09:32:34;87906.38;;;5.81;69.61
60049;BME280;66154;45.544;6.756;2023-01-01T09:37:35;87890.97;;;5.91;69.45
60049;BME280;66154;45.544;6.756;2023-01-01T09:42:48;87889.69;;;5.94;69.68
60049;BME280;66154;45.544;6.756;2023-01-01T09:48:04;87887.78;;;6.15;68.84
60049;BME280;66154;45.544;6.756;2023-01-01T09:58:14;87872.94;;;6.51;65.41
60049;BME280;66154;45.544;6.756;2023-01-01T10:09:18;87858.47;;;6.71;66.78
60049;BME280;66154;45.544;6.756;2023-01-01T10:14:44;87852.66;;;6.89;64.65
60049;BME280;66154;45.544;6.756;2023-01-01T10:19:50;87855.13;;;7.00;63.32
60049;BME280;66154;45.544;6.756;2023-01-01T10:25:12;87846.78;;;7.13;63.05
60049;BME280;66154;45.544;6.756;2023-01-01T10:30:19;87840.28;;;7.21;64.14
60049;BME280;66154;45.544;6.756;2023-01-01T10:35:28;87835.28;;;7.35;63.95
60049;BME280;66154;45.544;6.756;2023-01-01T10:40:32;87826.84;;;7.53;64.29
60049;BME280;66154;45.544;6.756;2023-01-01T10:45:37;87812.72;;;7.94;60.83
60049;BME280;66154;45.544;6.756;2023-01-01T10:55:40;87805.06;;;8.27;58.91
60049;BME280;66154;45.544;6.756;2023-01-01T11:00:41;87790.97;;;8.43;59.56
60049;BME280;66154;45.544;6.756;2023-01-01T11:06:02;87782.34;;;8.53;58.80
60049;BME280;66154;45.544;6.756;2023-01-01T11:11:04;87773.06;;;8.57;57.57
60049;BME280;66154;45.544;6.756;2023-01-01T11:16:09;87764.25;;;8.63;58.51
60049;BME280;66154;45.544;6.756;2023-01-01T11:21:18;87762.13;;;8.65;57.32
60049;BME280;66154;45.544;6.756;2023-01-01T11:26:22;87763.56;;;8.72;56.84
60049;BME280;66154;45.544;6.756;2023-01-01T11:31:37;87755.00;;;8.62;57.63
60049;BME280;66154;45.544;6.756;2023-01-01T11:36:38;87753.31;;;8.72;55.74
60049;BME280;66154;45.544;6.756;2023-01-01T11:41:46;87740.22;;;8.73;56.19
60049;BME280;66154;45.544;6.756;2023-01-01T11:46:47;87739.81;;;8.80;55.64
60049;BME280;66154;45.544;6.756;2023-01-01T11:51:48;87735.16;;;8.96;53.73
60049;BME280;66154;45.544;6.756;2023-01-01T11:56:52;87729.75;;;8.97;53.81
60049;BME280;66154;45.544;6.756;2023-01-01T12:01:57;87736.59;;;9.02;54.57
60049;BME280;66154;45.544;6.756;2023-01-01T12:07:07;87733.16;;;9.06;54.07
60049;BME280;66154;45.544;6.756;2023-01-01T12:12:26;87728.59;;;9.17;53.94
60049;BME280;66154;45.544;6.756;2023-01-01T12:17:42;87725.16;;;9.22;52.67
60049;BME280;66154;45.544;6.756;2023-01-01T12:22:42;87714.78;;;9.27;52.75
60049;BME280;66154;45.544;6.756;2023-01-01T12:28:03;87710.47;;;9.36;52.75
60049;BME280;66154;45.544;6.756;2023-01-01T12:54:53;87691.69;;;13.78;43.43
60049;BME280;66154;45.544;6.756;2023-01-01T13:00:03;87693.13;;;14.42;43.41
60049;BME280;66154;45.544;6.756;2023-01-01T13:05:21;87692.13;;;15.05;41.28
60049;BME280;66154;45.544;6.756;2023-01-01T13:10:33;87697.47;;;16.87;39.35
60049;BME280;66154;45.544;6.756;2023-01-01T13:20:55;87693.34;;;20.74;32.18
60049;BME280;66154;45.544;6.756;2023-01-01T13:36:40;87697.03;;;17.33;34.53
60049;BME280;66154;45.544;6.756;2023-01-01T13:41:43;87687.72;;;15.06;37.41
60049;BME280;66154;45.544;6.756;2023-01-01T14:02:35;87711.91;;;11.74;47.84
60049;BME280;66154;45.544;6.756;2023-01-01T14:12:46;87710.97;;;11.53;49.44
60049;BME280;66154;45.544;6.756;2023-01-01T14:17:47;87707.03;;;11.38;48.00
60049;BME280;66154;45.544;6.756;2023-01-01T14:22:49;87695.78;;;11.16;49.03
60049;BME280;66154;45.544;6.756;2023-01-01T14:27:53;87707.91;;;11.07;47.44
60049;BME280;66154;45.544;6.756;2023-01-01T14:32:59;87712.56;;;10.96;47.25
60049;BME280;66154;45.544;6.756;2023-01-01T14:38:17;87728.00;;;10.56;47.64
60049;BME280;66154;45.544;6.756;2023-01-01T14:43:22;87731.22;;;10.62;49.49
60049;BME280;66154;45.544;6.756;2023-01-01T14:48:23;87742.44;;;10.66;49.94
60049;BME280;66154;45.544;6.756;2023-01-01T14:53:29;87741.44;;;10.44;51.34
60049;BME280;66154;45.544;6.756;2023-01-01T14:58:32;87740.97;;;10.42;52.76
60049;BME280;66154;45.544;6.756;2023-01-01T15:03:33;87740.63;;;10.12;53.20
60049;BME280;66154;45.544;6.756;2023-01-01T15:08:33;87749.47;;;10.29;53.90
60049;BME280;66154;45.544;6.756;2023-01-01T15:13:34;87754.09;;;10.18;53.51
60049;BME280;66154;45.544;6.756;2023-01-01T15:18:43;87755.69;;;10.05;54.76
60049;BME280;66154;45.544;6.756;2023-01-01T15:23:55;87751.66;;;9.68;56.28
60049;BME280;66154;45.544;6.756;2023-01-01T15:28:57;87758.97;;;9.97;55.49
60049;BME280;66154;45.544;6.756;2023-01-01T15:33:58;87752.16;;;9.78;56.00
60049;BME280;66154;45.544;6.756;2023-01-01T15:38:59;87756.78;;;9.68;56.78
60049;BME280;66154;45.544;6.756;2023-01-01T15:44:07;87762.78;;;9.13;57.88
60049;BME280;66154;45.544;6.756;2023-01-01T15:49:21;87760.78;;;9.37;55.85
60049;BME280;66154;45.544;6.756;2023-01-01T15:54:22;87762.34;;;8.83;56.50
60049;BME280;66154;45.544;6.756;2023-01-01T15:59:31;87767.25;;;9.07;55.21
60049;BME280;66154;45.544;6.756;2023-01-01T16:04:32;87769.25;;;8.68;55.48
60049;BME280;66154;45.544;6.756;2023-01-01T16:09:33;87776.66;;;8.56;56.73
60049;BME280;66154;45.544;6.756;2023-01-01T16:14:35;87773.22;;;8.47;56.06
60049;BME280;66154;45.544;6.756;2023-01-01T16:19:35;87779.06;;;8.33;57.64
60049;BME280;66154;45.544;6.756;2023-01-01T16:24:36;87788.28;;;8.02;58.34
60049;BME280;66154;45.544;6.756;2023-01-01T16:29:36;87787.47;;;8.53;58.15
60049;BME280;66154;45.544;6.756;2023-01-01T16:34:37;87791.28;;;8.23;57.92
60049;BME280;66154;45.544;6.756;2023-01-01T16:39:38;87787.88;;;7.94;58.13
60049;BME280;66154;45.544;6.756;2023-01-01T16:44:42;87785.00;;;7.82;58.22
60049;BME280;66154;45.544;6.756;2023-01-01T16:49:42;87782.00;;;7.94;57.66
60049;BME280;66154;45.544;6.756;2023-01-01T16:54:44;87784.38;;;7.90;57.92
60049;BME280;66154;45.544;6.756;2023-01-01T16:59:45;87789.56;;;7.85;58.81
60049;BME280;66154;45.544;6.756;2023-01-01T17:04:45;87790.69;;;7.79;59.16
60049;BME280;66154;45.544;6.756;2023-01-01T17:09:46;87788.44;;;7.72;59.28
60049;BME280;66154;45.544;6.756;2023-01-01T17:14:46;87794.28;;;7.78;56.96
60049;BME280;66154;45.544;6.756;2023-01-01T17:19:47;87790.63;;;7.65;57.30
60049;BME280;66154;45.544;6.756;2023-01-01T17:24:49;87799.28;;;7.69;57.76
60049;BME280;66154;45.544;6.756;2023-01-01T17:29:50;87791.78;;;7.54;58.16
60049;BME280;66154;45.544;6.756;2023-01-01T17:34:50;87787.63;;;7.58;57.62
60049;BME280;66154;45.544;6.756;2023-01-01T17:39:51;87793.66;;;7.48;58.72
60049;BME280;66154;45.544;6.756;2023-01-01T17:44:52;87795.03;;;7.40;59.55
60049;BME280;66154;45.544;6.756;2023-01-01T17:49:53;87796.81;;;7.21;60.57
60049;BME280;66154;45.544;6.756;2023-01-01T17:54:53;87802.66;;;7.27;59.94
60049;BME280;66154;45.544;6.756;2023-01-01T17:59:54;87795.25;;;7.25;58.82
60049;BME280;66154;45.544;6.756;2023-01-01T18:04:58;87789.66;;;6.99;61.02
60049;BME280;66154;45.544;6.756;2023-01-01T18:09:58;87791.44;;;6.79;61.29
60049;BME280;66154;45.544;6.756;2023-01-01T18:14:59;87781.06;;;6.89;61.06
60049;BME280;66154;45.544;6.756;2023-01-01T18:19:59;87793.13;;;6.65;61.68
60049;BME280;66154;45.544;6.756;2023-01-01T18:25:00;87782.03;;;6.75;60.68
60049;BME280;66154;45.544;6.756;2023-01-01T18:30:00;87784.13;;;6.67;61.06
60049;BME280;66154;45.544;6.756;2023-01-01T18:35:01;87785.88;;;6.72;59.67
60049;BME280;66154;45.544;6.756;2023-01-01T18:40:12;87784.47;;;6.61;61.09
60049;BME280;66154;45.544;6.756;2023-01-01T18:45:20;87778.91;;;6.78;57.04
60049;BME280;66154;45.544;6.756;2023-01-01T18:50:23;87777.03;;;6.11;62.12
60049;BME280;66154;45.544;6.756;2023-01-01T18:55:25;87773.63;;;6.21;61.08
60049;BME280;66154;45.544;6.756;2023-01-01T19:00:28;87776.38;;;6.53;59.18
60049;BME280;66154;45.544;6.756;2023-01-01T19:05:31;87766.56;;;6.61;60.15
60049;BME280;66154;45.544;6.756;2023-01-01T19:10:48;87764.16;;;6.50;60.90
60049;BME280;66154;45.544;6.756;2023-01-01T19:26:20;87766.94;;;6.25;61.32
60049;BME280;66154;45.544;6.756;2023-01-01T19:31:22;87772.34;;;6.47;59.22
60049;BME280;66154;45.544;6.756;2023-01-01T19:36:23;87774.91;;;6.47;59.89
60049;BME280;66154;45.544;6.756;2023-01-01T19:41:23;87766.19;;;6.48;60.47
60049;BME280;66154;45.544;6.756;2023-01-01T19:46:24;87769.63;;;6.39;61.58
60049;BME280;66154;45.544;6.756;2023-01-01T19:51:25;87765.00;;;6.41;61.01
60049;BME280;66154;45.544;6.756;2023-01-01T19:56:25;87757.06;;;6.42;61.71
60049;BME280;66154;45.544;6.756;2023-01-01T20:01:26;87761.00;;;6.34;60.56
60049;BME280;66154;45.544;6.756;2023-01-01T20:06:26;87759.94;;;6.35;61.02
60049;BME280;66154;45.544;6.756;2023-01-01T20:11:27;87766.72;;;6.45;60.43
60049;BME280;66154;45.544;6.756;2023-01-01T20:16:30;87756.63;;;6.35;58.91
60049;BME280;66154;45.544;6.756;2023-01-01T20:21:32;87768.19;;;6.51;57.34
60049;BME280;66154;45.544;6.756;2023-01-01T20:26:51;87765.34;;;6.58;58.79
60049;BME280;66154;45.544;6.756;2023-01-01T20:31:52;87754.00;;;6.40;59.86
60049;BME280;66154;45.544;6.756;2023-01-01T20:36:53;87757.97;;;6.51;57.73
60049;BME280;66154;45.544;6.756;2023-01-01T20:42:12;87746.69;;;6.58;58.18
60049;BME280;66154;45.544;6.756;2023-01-01T20:47:13;87752.41;;;6.49;59.04
60049;BME280;66154;45.544;6.756;2023-01-01T20:52:13;87743.16;;;6.53;58.95
60049;BME280;66154;45.544;6.756;2023-01-01T20:57:14;87747.06;;;6.46;59.84
60049;BME280;66154;45.544;6.756;2023-01-01T21:02:15;87751.91;;;6.47;58.75
60049;BME280;66154;45.544;6.756;2023-01-01T21:07:15;87751.19;;;6.42;58.95
60049;BME280;66154;45.544;6.756;2023-01-01T21:12:16;87750.38;;;6.46;58.36
60049;BME280;66154;45.544;6.756;2023-01-01T21:17:19;87746.09;;;6.42;58.13
60049;BME280;66154;45.544;6.756;2023-01-01T21:22:21;87739.69;;;6.44;58.54
60049;BME280;66154;45.544;6.756;2023-01-01T21:27:32;87736.59;;;6.47;57.55
60049;BME280;66154;45.544;6.756;2023-01-01T21:32:38;87733.84;;;6.14;58.12
60049;BME280;66154;45.544;6.756;2023-01-01T21:37:39;87730.63;;;6.28;58.25
60049;BME280;66154;45.544;6.756;2023-01-01T21:42:53;87725.03;;;6.02;59.13
60049;BME280;66154;45.544;6.756;2023-01-01T21:47:55;87729.59;;;6.05;58.46
60049;BME280;66154;45.544;6.756;2023-01-01T21:53:00;87738.69;;;6.40;54.97
60049;BME280;66154;45.544;6.756;2023-01-01T21:58:01;87737.16;;;6.15;56.55
60049;BME280;66154;45.544;6.756;2023-01-01T22:03:27;87748.16;;;6.10;57.76
60049;BME280;66154;45.544;6.756;2023-01-01T22:08:28;87741.28;;;6.11;56.35
60049;BME280;66154;45.544;6.756;2023-01-01T22:13:28;87737.56;;;5.93;57.47
60049;BME280;66154;45.544;6.756;2023-01-01T22:18:30;87736.38;;;5.85;57.10
60049;BME280;66154;45.544;6.756;2023-01-01T22:23:37;87722.06;;;5.89;56.30
60049;BME280;66154;45.544;6.756;2023-01-01T22:28:43;87722.41;;;5.77;55.26
60049;BME280;66154;45.544;6.756;2023-01-01T22:33:46;87729.22;;;5.87;55.90
60049;BME280;66154;45.544;6.756;2023-01-01T22:38:47;87729.19;;;5.63;56.31
60049;BME280;66154;45.544;6.756;2023-01-01T22:43:48;87718.78;;;5.84;56.10
60049;BME280;66154;45.544;6.756;2023-01-01T22:48:50;87719.41;;;5.70;55.95
60049;BME280;66154;45.544;6.756;2023-01-01T22:53:50;87726.44;;;5.84;56.48
60049;BME280;66154;45.544;6.756;2023-01-01T22:58:51;87716.06;;;6.04;54.70
60049;BME280;66154;45.544;6.756;2023-01-01T23:03:53;87711.44;;;5.77;55.59
60049;BME280;66154;45.544;6.756;2023-01-01T23:08:54;87715.13;;;5.95;54.71
60049;BME280;66154;45.544;6.756;2023-01-01T23:13:55;87719.72;;;5.93;54.83
60049;BME280;66154;45.544;6.756;2023-01-01T23:19:14;87707.31;;;5.81;55.05
60049;BME280;66154;45.544;6.756;2023-01-01T23:24:17;87707.59;;;5.79;55.45
60049;BME280;66154;45.544;6.756;2023-01-01T23:29:20;87693.84;;;5.75;56.26
60049;BME280;66154;45.544;6.756;2023-01-01T23:34:22;87695.91;;;5.73;56.12
60049;BME280;66154;45.544;6.756;2023-01-01T23:39:23;87689.44;;;5.52;55.76
60049;BME280;66154;45.544;6.756;2023-01-01T23:44:23;87678.28;;;5.48;56.96
60049;BME280;66154;45.544;6.756;2023-01-01T23:49:24;87677.97;;;5.54;56.84
60049;BME280;66154;45.544;6.756;2023-01-01T23:54:25;87672.19;;;5.43;57.09
60049;BME280;66154;45.544;6.756;2023-01-01T23:59:26;87676.22;;;5.15;57.40
